Strona główna
METAR-TAF:

METAR-TAF

Lotnisko :

Port lotniczy Pointe-Noire

Pointe-Noire, Kongo

Szerokość geograficzna: 04-49S, Długość geograficzna: 011-54E, wysokość: 17 m

Aktualna obserwacja pogody

Raport powstał 32 minut temu, godzina 14:00 UTC
Wiatr 10 kt od południowo-południowy zachód, zmienny między południe i południowy zachód
Temperatura 27°C
Wilgotność 70%
Ciśnienie 1013 hPa
Widzialność 10 km lub więcej
Mało chmury na wysokości 1500 ft
Rozproszone chmury na wysokości 2000 ft

METAR: FCPP 191400Z 20010KT 170V230 9999 FEW015 SCT020 27/21 Q1013 NOSIG

czas: 15:32 (14:32 UTC)

Prognoza

Raport powstał 3 godziny i 32 minut temu, godzina 11:00 UTC
Prognoza ważna od 19 godzina 12 UTC do 20 godzina 12 UTC
Wiatr 8 kt od południowy zachód
Widzialność 10 km lub więcej
Rozproszone chmury na wysokości 1600 ft
Prawdopodobieństwo 30%
od 20 godzina 04 UTC do 20 godzina 07 UTC
Widzialność: 4000 m
zamglenie

TAF: FCPP 191100Z 1912/2012 22008KT 9999 SCT016 PROB30 2004/2007 4000 BR

Obserwacja i prognoza pogody dla ponad 4000 lotnisk (raport METAR i TAF).

Dostępne stacje oznaczono żółtymi i czerwonymi punktami na mapie.

Najedź kursorem aby zobaczyć nazwę stacji.

Kliknij aby zobaczyć obserwacje i prognozy pogody.

Aby zmienić mapę: kliknij na zielony przycisk z czarnym krzyżykiem, aby powiększyć; na zielony przycisk z myślnikiem, aby pomniejszyć; na zielone strzałki, aby przejść do map sąsiednich.


METAR-TAF: